createdAt,value
2023-03-28T00:00:49.835Z,3.90
2023-03-28T00:03:19.372Z,4.00
2023-03-28T00:05:49.240Z,4.00
2023-03-28T00:08:18.533Z,4.00
2023-03-28T00:10:46.477Z,4.00
2023-03-28T00:13:14.793Z,4.00
2023-03-28T00:15:43.291Z,4.00
2023-03-28T00:18:11.810Z,4.00
2023-03-28T00:20:42.842Z,3.90
2023-03-28T00:23:12.219Z,3.90
2023-03-28T00:25:43.594Z,3.90
2023-03-28T00:28:10.770Z,3.90
2023-03-28T00:30:38.083Z,3.90
2023-03-28T00:33:06.260Z,3.90
2023-03-28T00:35:34.964Z,3.80
2023-03-28T00:38:02.160Z,3.80
2023-03-28T00:40:30.972Z,3.70
2023-03-28T00:42:58.197Z,3.70
2023-03-28T00:45:27.138Z,3.70
2023-03-28T00:48:02.268Z,3.60
2023-03-28T00:50:36.695Z,3.60
2023-03-28T00:53:10.466Z,3.60
2023-03-28T00:55:47.683Z,3.60
2023-03-28T00:58:24.262Z,3.60
2023-03-28T01:00:55.527Z,3.50
2023-03-28T01:03:28.140Z,3.50
2023-03-28T01:05:57.172Z,3.50
2023-03-28T01:08:41.270Z,3.50
2023-03-28T01:11:10.340Z,3.40
2023-03-28T01:13:42.227Z,3.40
2023-03-28T01:16:12.826Z,3.40
2023-03-28T01:18:41.768Z,3.40
2023-03-28T01:21:28.349Z,3.40
2023-03-28T01:24:11.936Z,3.40
2023-03-28T01:27:17.425Z,3.40
2023-03-28T01:30:03.365Z,3.40
2023-03-28T01:33:08.365Z,3.40
2023-03-28T01:36:00.660Z,3.40
2023-03-28T01:38:47.518Z,3.40
2023-03-28T01:41:31.713Z,3.40
2023-03-28T01:44:18.897Z,3.50
2023-03-28T01:47:04.771Z,3.50
2023-03-28T01:49:47.210Z,3.50
2023-03-28T01:52:17.422Z,3.50
2023-03-28T01:54:52.455Z,3.50
2023-03-28T01:57:23.629Z,3.50
2023-03-28T02:00:13.762Z,3.50
2023-03-28T02:03:06.204Z,3.50
2023-03-28T02:05:39.807Z,3.50
2023-03-28T02:08:13.589Z,3.50
2023-03-28T02:10:49.872Z,3.40
2023-03-28T02:13:48.160Z,3.40
2023-03-28T02:16:41.635Z,3.40
2023-03-28T02:19:27.174Z,3.40
2023-03-28T02:22:35.099Z,3.30
2023-03-28T02:25:18.564Z,3.30
2023-03-28T02:28:01.525Z,3.30
2023-03-28T02:30:47.627Z,3.20
2023-03-28T02:33:38.109Z,3.20
2023-03-28T02:36:30.629Z,3.20
2023-03-28T02:39:23.069Z,3.20
2023-03-28T02:42:20.871Z,3.20
2023-03-28T02:45:12.576Z,3.20
2023-03-28T02:48:11.607Z,3.10
2023-03-28T02:50:55.486Z,3.10
2023-03-28T02:53:27.343Z,3.00
2023-03-28T02:56:22.018Z,3.00
2023-03-28T02:59:14.968Z,3.00
2023-03-28T03:01:43.085Z,3.10
2023-03-28T03:04:10.572Z,3.10
2023-03-28T03:06:39.181Z,3.10
2023-03-28T03:09:06.628Z,3.10
2023-03-28T03:11:33.677Z,3.10
2023-03-28T03:14:00.949Z,3.10
2023-03-28T03:16:30.000Z,3.10
2023-03-28T03:18:58.748Z,3.10
2023-03-28T03:21:26.347Z,3.00
2023-03-28T03:23:53.468Z,3.00
2023-03-28T03:26:20.836Z,2.90
2023-03-28T03:29:14.087Z,2.90
2023-03-28T03:31:41.858Z,2.90
2023-03-28T03:34:33.973Z,2.90
2023-03-28T03:37:02.492Z,2.90
2023-03-28T03:39:30.108Z,2.90
2023-03-28T03:41:57.588Z,2.90
2023-03-28T03:44:24.750Z,2.90
2023-03-28T03:46:52.595Z,2.90
2023-03-28T03:49:19.752Z,2.90
2023-03-28T03:51:47.071Z,2.90
2023-03-28T03:54:17.139Z,2.90
2023-03-28T03:56:44.462Z,2.90
2023-03-28T03:59:12.701Z,2.90
2023-03-28T04:01:41.794Z,2.90
2023-03-28T04:04:40.591Z,3.00
2023-03-28T04:07:25.929Z,3.00
2023-03-28T04:09:56.996Z,3.10
2023-03-28T04:12:27.151Z,3.10
2023-03-28T04:14:55.913Z,3.10
2023-03-28T04:17:44.317Z,3.10
2023-03-28T04:20:18.522Z,3.10
2023-03-28T04:23:08.649Z,3.10
2023-03-28T04:25:37.670Z,3.20
2023-03-28T04:28:09.906Z,3.20
2023-03-28T04:30:44.524Z,3.30
2023-03-28T04:33:34.074Z,3.30
2023-03-28T04:36:04.643Z,3.40
2023-03-28T04:38:36.809Z,3.40
2023-03-28T04:41:18.643Z,3.50
2023-03-28T04:44:06.175Z,3.50
2023-03-28T04:46:41.100Z,3.50
2023-03-28T04:49:14.246Z,3.60
2023-03-28T04:51:41.605Z,3.60
2023-03-28T04:54:08.747Z,3.60
2023-03-28T04:56:51.173Z,3.60
2023-03-28T04:59:26.952Z,3.60
2023-03-28T05:01:56.638Z,3.60
2023-03-28T05:04:42.473Z,3.60
2023-03-28T05:07:10.419Z,3.60
2023-03-28T05:09:38.545Z,3.60
2023-03-28T05:12:06.240Z,3.60
2023-03-28T05:14:45.076Z,3.60
2023-03-28T05:17:16.253Z,3.60
2023-03-28T05:19:54.949Z,3.70
2023-03-28T05:22:24.644Z,3.70
2023-03-28T05:24:53.771Z,3.70
2023-03-28T05:27:21.853Z,3.70
2023-03-28T05:29:49.136Z,3.70
2023-03-28T05:32:17.592Z,3.70
2023-03-28T05:34:46.288Z,3.80
2023-03-28T05:37:13.932Z,3.80
2023-03-28T05:39:48.758Z,3.80
2023-03-28T05:42:16.517Z,3.90
2023-03-28T05:44:44.256Z,3.90
2023-03-28T05:47:32.465Z,3.90
2023-03-28T05:50:00.272Z,3.90
2023-03-28T05:52:27.710Z,3.90
2023-03-28T05:54:56.327Z,3.90
2023-03-28T05:57:24.313Z,3.90
2023-03-28T05:59:52.821Z,3.90
2023-03-28T06:02:23.714Z,3.90
2023-03-28T06:04:56.754Z,3.90
2023-03-28T06:07:35.281Z,4.00
2023-03-28T06:10:10.357Z,4.00
2023-03-28T06:12:38.331Z,4.00
2023-03-28T06:15:07.315Z,4.00
2023-03-28T06:17:38.031Z,4.10
2023-03-28T06:20:09.966Z,4.00
2023-03-28T06:22:38.457Z,4.10
2023-03-28T06:25:11.023Z,4.10
2023-03-28T06:27:38.547Z,4.10
2023-03-28T06:30:07.294Z,4.10
2023-03-28T06:32:42.571Z,4.20
2023-03-28T06:35:09.913Z,4.20
2023-03-28T06:37:37.789Z,4.20
2023-03-28T06:40:09.477Z,4.20
2023-03-28T06:42:36.867Z,4.20
2023-03-28T06:45:22.046Z,4.30
2023-03-28T06:47:54.653Z,4.20
2023-03-28T06:50:30.665Z,4.20
2023-03-28T06:53:00.187Z,4.20
2023-03-28T06:55:27.616Z,4.20
2023-03-28T06:57:55.971Z,4.20
2023-03-28T07:00:32.842Z,4.20
2023-03-28T07:03:36.000Z,4.20
2023-03-28T07:06:10.194Z,4.20
2023-03-28T07:08:37.903Z,4.20
2023-03-28T07:11:05.487Z,4.30
2023-03-28T07:13:33.108Z,4.20
2023-03-28T07:16:08.187Z,4.30
2023-03-28T07:18:35.808Z,4.20
2023-03-28T07:21:08.802Z,4.30
2023-03-28T07:23:36.614Z,4.30
2023-03-28T07:26:03.828Z,4.20
2023-03-28T07:28:31.175Z,4.20
2023-03-28T07:31:00.481Z,4.30
2023-03-28T07:33:36.191Z,4.30
2023-03-28T07:36:16.290Z,4.30
2023-03-28T07:38:48.873Z,4.30
2023-03-28T07:41:18.239Z,4.30
2023-03-28T07:43:45.706Z,4.40
2023-03-28T07:46:15.663Z,4.40
2023-03-28T07:48:43.660Z,4.50
2023-03-28T07:51:11.447Z,4.60
2023-03-28T07:53:39.238Z,4.70
2023-03-28T07:56:11.980Z,4.70
2023-03-28T07:59:17.645Z,4.80
2023-03-28T08:01:48.172Z,4.90
2023-03-28T08:04:15.476Z,5.00
2023-03-28T08:07:03.111Z,5.00
2023-03-28T08:09:30.397Z,5.10
2023-03-28T08:12:12.954Z,5.10
2023-03-28T08:14:40.121Z,5.20
2023-03-28T08:17:07.333Z,5.30
2023-03-28T08:19:34.580Z,5.30
2023-03-28T08:22:30.731Z,5.30
2023-03-28T08:25:13.090Z,5.40
2023-03-28T08:27:42.273Z,5.40
2023-03-28T08:30:12.404Z,5.40
2023-03-28T08:32:50.064Z,5.50
2023-03-28T08:35:17.453Z,5.50
2023-03-28T08:37:45.833Z,5.50
2023-03-28T08:40:18.860Z,5.50
2023-03-28T08:42:49.243Z,5.50
2023-03-28T08:45:36.786Z,5.50
2023-03-28T08:48:12.880Z,5.60
2023-03-28T08:51:01.285Z,5.60
2023-03-28T08:54:14.755Z,5.70
2023-03-28T08:56:53.273Z,5.70
2023-03-28T08:59:44.297Z,5.70
2023-03-28T09:02:21.792Z,5.70
2023-03-28T09:04:50.782Z,5.70
2023-03-28T09:07:35.890Z,5.70
2023-03-28T09:10:18.917Z,5.70
2023-03-28T09:13:06.864Z,5.70
2023-03-28T09:15:40.382Z,5.80
2023-03-28T09:18:24.182Z,5.80
2023-03-28T09:20:59.294Z,5.80
2023-03-28T09:23:47.828Z,5.70
2023-03-28T09:26:27.874Z,5.80
2023-03-28T09:29:18.103Z,5.80
2023-03-28T09:31:48.186Z,5.80
2023-03-28T09:34:27.636Z,5.80
2023-03-28T09:37:35.502Z,5.80
2023-03-28T09:40:24.042Z,5.80
2023-03-28T09:43:30.364Z,5.80
2023-03-28T09:46:27.713Z,5.90
2023-03-28T09:49:03.273Z,5.90
2023-03-28T09:51:33.241Z,5.80
2023-03-28T09:54:07.684Z,5.80
2023-03-28T09:56:39.300Z,5.80
2023-03-28T09:59:29.170Z,5.80
2023-03-28T10:02:02.542Z,5.80
2023-03-28T10:04:38.834Z,5.80
2023-03-28T10:09:58.952Z,5.90
2023-03-28T10:12:34.643Z,5.90
2023-03-28T10:15:02.525Z,5.90
2023-03-28T10:17:53.031Z,6.00
2023-03-28T10:20:26.248Z,6.00
2023-03-28T10:22:57.936Z,6.00
2023-03-28T10:25:42.495Z,6.00
2023-03-28T10:28:17.893Z,6.10
2023-03-28T10:30:53.916Z,6.10
2023-03-28T10:33:26.068Z,6.20
2023-03-28T10:36:43.717Z,6.30
2023-03-28T10:39:35.666Z,6.30
2023-03-28T10:42:23.373Z,6.40
2023-03-28T10:45:03.722Z,6.40
2023-03-28T10:47:35.263Z,6.40
2023-03-28T10:50:29.066Z,6.50
2023-03-28T10:53:28.921Z,6.50
2023-03-28T10:56:07.462Z,6.50
2023-03-28T10:58:45.600Z,6.50
2023-03-28T11:01:42.042Z,6.60
2023-03-28T11:04:14.177Z,6.70
2023-03-28T11:06:54.753Z,6.70
2023-03-28T11:10:07.924Z,6.80
2023-03-28T11:12:58.949Z,6.80
2023-03-28T11:16:00.774Z,6.80
2023-03-28T11:18:38.618Z,6.90
2023-03-28T11:21:09.032Z,6.90
2023-03-28T11:23:45.938Z,6.90
2023-03-28T11:27:08.665Z,6.90
2023-03-28T11:30:20.504Z,6.90
2023-03-28T11:33:36.299Z,6.90
2023-03-28T11:36:19.075Z,7.00
2023-03-28T11:38:55.256Z,7.00
2023-03-28T11:41:30.072Z,7.10
2023-03-28T11:44:29.574Z,7.10
2023-03-28T11:46:59.529Z,7.10
2023-03-28T11:49:41.748Z,7.00
2023-03-28T11:53:04.164Z,6.90
2023-03-28T11:55:42.891Z,6.90
2023-03-28T11:58:26.325Z,6.80
2023-03-28T12:01:18.116Z,6.80
2023-03-28T12:04:12.232Z,6.90
2023-03-28T12:07:02.178Z,6.90
2023-03-28T12:09:59.292Z,6.90
2023-03-28T12:12:38.728Z,6.90
2023-03-28T12:15:21.502Z,6.90
2023-03-28T12:18:02.035Z,6.90
2023-03-28T12:20:35.440Z,6.90
2023-03-28T12:23:22.401Z,6.90
2023-03-28T12:26:26.457Z,6.90
2023-03-28T12:28:58.309Z,6.90
2023-03-28T12:31:31.780Z,7.00
2023-03-28T12:34:12.847Z,7.00
2023-03-28T12:37:13.014Z,7.00
2023-03-28T12:40:13.333Z,7.10
2023-03-28T12:42:45.347Z,7.20
2023-03-28T12:45:29.861Z,7.20
2023-03-28T12:48:19.706Z,7.30
2023-03-28T12:50:52.731Z,7.40
2023-03-28T12:53:22.019Z,7.50
2023-03-28T12:55:51.661Z,7.60
2023-03-28T12:58:35.051Z,7.60
2023-03-28T13:01:09.250Z,7.60
2023-03-28T13:03:58.795Z,7.60
2023-03-28T13:06:53.431Z,7.70
2023-03-28T13:09:35.692Z,7.70
2023-03-28T13:12:25.892Z,7.80
2023-03-28T13:15:09.284Z,7.80
2023-03-28T13:17:39.306Z,7.80
2023-03-28T13:20:27.730Z,7.70
2023-03-28T13:23:01.620Z,7.70
2023-03-28T13:25:38.931Z,7.70
2023-03-28T13:28:12.025Z,7.60
2023-03-28T13:30:44.006Z,7.60
2023-03-28T13:33:26.577Z,7.60
2023-03-28T13:35:59.864Z,7.70
2023-03-28T13:38:30.113Z,7.70
2023-03-28T13:41:09.846Z,7.80
2023-03-28T13:44:04.975Z,7.80
2023-03-28T13:47:04.999Z,7.80
2023-03-28T13:49:47.131Z,7.90
2023-03-28T13:52:24.566Z,7.80
2023-03-28T13:54:54.886Z,7.70
2023-03-28T13:57:26.433Z,7.70
2023-03-28T14:00:00.509Z,7.70
2023-03-28T14:02:31.828Z,7.70
2023-03-28T14:05:15.509Z,7.60
2023-03-28T14:07:42.848Z,7.50
2023-03-28T14:10:30.755Z,7.50
2023-03-28T14:13:06.158Z,7.50
2023-03-28T14:15:36.991Z,7.50
2023-03-28T14:18:04.501Z,7.50
2023-03-28T14:20:33.622Z,7.50
2023-03-28T14:23:01.602Z,7.50
2023-03-28T14:25:30.643Z,7.50
2023-03-28T14:28:06.492Z,7.50
2023-03-28T14:30:42.285Z,7.50
2023-03-28T14:33:14.494Z,7.50
2023-03-28T14:35:43.106Z,7.50
2023-03-28T14:38:26.761Z,7.50
2023-03-28T14:40:54.987Z,7.50
2023-03-28T14:43:31.352Z,7.50
2023-03-28T14:46:03.475Z,7.50
2023-03-28T14:48:31.477Z,7.50
2023-03-28T14:51:01.482Z,7.50
2023-03-28T14:53:31.710Z,7.50
2023-03-28T14:56:06.778Z,7.50
2023-03-28T14:58:37.197Z,7.50
2023-03-28T15:01:07.851Z,7.50
2023-03-28T15:03:39.416Z,7.50
2023-03-28T15:06:09.402Z,7.50
2023-03-28T15:08:38.720Z,7.50
2023-03-28T15:11:23.491Z,7.60
2023-03-28T15:13:59.379Z,7.60
2023-03-28T15:16:28.150Z,7.60
2023-03-28T15:19:09.325Z,7.60
2023-03-28T15:21:38.635Z,7.60
2023-03-28T15:24:10.297Z,7.60
2023-03-28T15:26:42.068Z,7.60
2023-03-28T15:29:12.804Z,7.70
2023-03-28T15:31:41.330Z,7.60
2023-03-28T15:34:18.884Z,7.60
2023-03-28T15:37:08.626Z,7.60
2023-03-28T15:39:36.231Z,7.60
2023-03-28T15:42:34.219Z,7.60
2023-03-28T15:45:01.397Z,7.60
2023-03-28T15:47:31.443Z,7.60
2023-03-28T15:50:06.865Z,7.60
2023-03-28T15:52:34.519Z,7.60
2023-03-28T15:55:03.395Z,7.60
2023-03-28T15:57:31.540Z,7.50
2023-03-28T16:00:00.827Z,7.50
2023-03-28T16:02:28.302Z,7.50
2023-03-28T16:05:11.071Z,7.50
2023-03-28T16:07:44.318Z,7.50
2023-03-28T16:10:13.400Z,7.40
2023-03-28T16:13:00.448Z,7.40
2023-03-28T16:15:51.315Z,7.40
2023-03-28T16:18:31.403Z,7.40
2023-03-28T16:21:01.626Z,7.50
2023-03-28T16:23:28.979Z,7.50
2023-03-28T16:25:56.107Z,7.40
2023-03-28T16:28:23.268Z,7.40
2023-03-28T16:30:50.717Z,7.40
2023-03-28T16:33:19.742Z,7.40
2023-03-28T16:35:46.983Z,7.30
2023-03-28T16:38:14.171Z,7.30
2023-03-28T16:40:42.325Z,7.30
2023-03-28T16:43:09.819Z,7.30
2023-03-28T16:45:38.149Z,7.30
2023-03-28T16:48:05.442Z,7.30
2023-03-28T16:50:32.721Z,7.30
2023-03-28T16:53:02.345Z,7.20
2023-03-28T16:55:29.477Z,7.20
2023-03-28T16:57:56.564Z,7.20
2023-03-28T17:00:30.823Z,7.10
2023-03-28T17:02:58.221Z,7.20
2023-03-28T17:05:25.440Z,7.10
2023-03-28T17:07:52.750Z,7.20
2023-03-28T17:10:19.977Z,7.10
2023-03-28T17:12:47.626Z,7.20
2023-03-28T17:15:14.727Z,7.20
2023-03-28T17:17:41.866Z,7.20
2023-03-28T17:20:09.390Z,7.20
2023-03-28T17:22:36.538Z,7.10
2023-03-28T17:25:04.708Z,7.10
2023-03-28T17:27:31.962Z,7.10
2023-03-28T17:29:59.146Z,7.10
2023-03-28T17:32:26.498Z,7.10
2023-03-28T17:34:53.792Z,7.10
2023-03-28T17:37:22.498Z,7.10
2023-03-28T17:39:49.654Z,7.10
2023-03-28T17:42:16.955Z,7.10
2023-03-28T17:44:44.195Z,7.00
2023-03-28T17:47:11.665Z,7.10
2023-03-28T17:49:38.864Z,7.00
2023-03-28T17:52:06.394Z,7.10
2023-03-28T17:54:33.606Z,7.10
2023-03-28T17:57:01.438Z,7.10
2023-03-28T17:59:29.381Z,7.00
2023-03-28T18:01:56.738Z,7.10
2023-03-28T18:04:23.922Z,7.00
2023-03-28T18:07:29.176Z,7.10
2023-03-28T18:10:01.013Z,7.00
2023-03-28T18:12:28.321Z,7.10
2023-03-28T18:14:58.956Z,7.00
2023-03-28T18:17:28.329Z,7.00
2023-03-28T18:19:55.573Z,7.00
2023-03-28T18:22:23.113Z,7.00
2023-03-28T18:24:50.532Z,7.00
2023-03-28T18:27:17.680Z,7.00
2023-03-28T18:29:45.394Z,7.00
2023-03-28T18:32:12.715Z,7.00
2023-03-28T18:34:41.493Z,7.00
2023-03-28T18:37:10.385Z,7.00
2023-03-28T18:39:37.777Z,7.00
2023-03-28T18:42:06.377Z,7.00
2023-03-28T18:44:35.811Z,7.00
2023-03-28T18:47:04.316Z,7.00
2023-03-28T18:49:32.228Z,7.00
2023-03-28T18:52:05.204Z,6.90
2023-03-28T18:54:34.096Z,6.90
2023-03-28T18:57:01.606Z,6.90
2023-03-28T18:59:30.052Z,6.90
2023-03-28T19:01:58.640Z,6.90
2023-03-28T19:04:26.693Z,6.90
2023-03-28T19:06:53.988Z,6.90
2023-03-28T19:09:21.392Z,6.90
2023-03-28T19:11:52.617Z,6.90
2023-03-28T19:14:19.834Z,6.90
2023-03-28T19:16:47.174Z,6.90
2023-03-28T19:19:14.415Z,6.90
2023-03-28T19:21:41.517Z,6.90
2023-03-28T19:24:08.988Z,6.90
2023-03-28T19:26:37.205Z,6.80
2023-03-28T19:29:04.381Z,6.90
2023-03-28T19:31:31.902Z,6.80
2023-03-28T19:33:59.253Z,6.80
2023-03-28T19:36:26.571Z,6.80
2023-03-28T19:38:53.667Z,6.90
2023-03-28T19:41:24.510Z,6.90
2023-03-28T19:43:51.887Z,6.90
2023-03-28T19:46:30.061Z,6.80
2023-03-28T19:49:01.510Z,6.90
2023-03-28T19:51:29.178Z,6.80
2023-03-28T19:53:56.637Z,6.80
2023-03-28T19:56:23.821Z,6.80
2023-03-28T19:58:52.195Z,6.90
2023-03-28T20:01:20.249Z,6.90
2023-03-28T20:03:52.242Z,6.80
2023-03-28T20:06:21.336Z,6.80
2023-03-28T20:08:48.810Z,6.80
2023-03-28T20:11:16.968Z,6.80
2023-03-28T20:13:44.589Z,6.90
2023-03-28T20:16:12.871Z,6.90
2023-03-28T20:18:40.191Z,6.90
2023-03-28T20:21:12.388Z,6.90
2023-03-28T20:23:39.965Z,6.90
2023-03-28T20:26:18.737Z,6.90
2023-03-28T20:28:50.385Z,6.90
2023-03-28T20:31:19.213Z,6.90
2023-03-28T20:33:46.550Z,6.90
2023-03-28T20:36:13.859Z,6.90
2023-03-28T20:38:41.246Z,6.90
2023-03-28T20:41:11.713Z,6.90
2023-03-28T20:43:40.971Z,6.90
2023-03-28T20:46:09.780Z,6.90
2023-03-28T20:48:37.096Z,6.90
2023-03-28T20:51:17.542Z,6.90
2023-03-28T20:53:50.564Z,6.90
2023-03-28T20:56:21.855Z,6.80
2023-03-28T20:58:50.863Z,6.80
2023-03-28T21:01:25.380Z,6.80
2023-03-28T21:03:58.891Z,6.80
2023-03-28T21:06:35.459Z,6.90
2023-03-28T21:09:06.520Z,6.90
2023-03-28T21:11:35.631Z,6.90
2023-03-28T21:14:03.793Z,6.90
2023-03-28T21:16:31.870Z,6.90
2023-03-28T21:19:02.839Z,6.90
2023-03-28T21:21:33.248Z,6.90
2023-03-28T21:24:01.733Z,6.90
2023-03-28T21:26:29.336Z,6.90
2023-03-28T21:28:56.493Z,6.90
2023-03-28T21:31:26.290Z,6.80
2023-03-28T21:33:57.783Z,6.80
2023-03-28T21:36:26.798Z,6.80
2023-03-28T21:38:54.555Z,6.80
2023-03-28T21:41:22.694Z,6.90
2023-03-28T21:43:53.869Z,6.80
2023-03-28T21:46:22.417Z,6.90
2023-03-28T21:48:50.093Z,6.90
2023-03-28T21:51:17.946Z,6.90
2023-03-28T21:53:45.955Z,6.90
2023-03-28T21:56:14.691Z,6.90
2023-03-28T21:58:42.538Z,6.90
2023-03-28T22:01:13.761Z,6.90
2023-03-28T22:03:41.379Z,6.90
2023-03-28T22:06:08.954Z,6.90
2023-03-28T22:08:36.215Z,6.90
2023-03-28T22:11:10.907Z,6.90
2023-03-28T22:13:38.933Z,6.90
2023-03-28T22:16:09.475Z,6.90
2023-03-28T22:18:36.885Z,6.90
2023-03-28T22:21:04.415Z,6.90
2023-03-28T22:23:32.524Z,6.90
2023-03-28T22:25:59.727Z,6.90
2023-03-28T22:28:27.145Z,6.90
2023-03-28T22:30:55.588Z,6.90
2023-03-28T22:33:24.206Z,7.00
2023-03-28T22:35:52.182Z,7.00
2023-03-28T22:38:19.666Z,7.00
2023-03-28T22:40:47.799Z,7.00
2023-03-28T22:43:16.256Z,6.90
2023-03-28T22:45:43.574Z,7.00
2023-03-28T22:48:17.214Z,7.00
2023-03-28T22:50:44.923Z,6.90
2023-03-28T22:53:14.262Z,6.90
2023-03-28T22:55:42.698Z,6.90
2023-03-28T22:58:09.758Z,6.90
2023-03-28T23:00:37.615Z,6.90
2023-03-28T23:03:04.957Z,6.90
2023-03-28T23:05:32.210Z,6.90
2023-03-28T23:08:00.232Z,6.90
2023-03-28T23:10:27.537Z,6.90
2023-03-28T23:12:54.708Z,6.90
2023-03-28T23:15:22.277Z,6.90
2023-03-28T23:17:49.591Z,6.90
2023-03-28T23:20:17.261Z,6.90
2023-03-28T23:22:46.458Z,7.00
2023-03-28T23:25:16.082Z,7.00
2023-03-28T23:27:43.681Z,7.00
2023-03-28T23:30:13.798Z,7.00
2023-03-28T23:32:41.285Z,7.00
2023-03-28T23:35:10.528Z,7.10
2023-03-28T23:37:41.313Z,7.10
2023-03-28T23:40:16.038Z,7.10
2023-03-28T23:42:45.027Z,7.10
2023-03-28T23:45:14.968Z,7.10
2023-03-28T23:47:43.722Z,7.10
2023-03-28T23:50:11.663Z,7.00
2023-03-28T23:52:38.855Z,7.00
2023-03-28T23:55:08.895Z,7.00
2023-03-28T23:57:36.495Z,7.00
